createdAt,value
2022-09-29T00:02:37.221Z,9.30
2022-09-29T00:05:25.040Z,9.30
2022-09-29T00:08:12.875Z,9.30
2022-09-29T00:11:00.389Z,9.20
2022-09-29T00:13:48.728Z,9.20
2022-09-29T00:16:36.536Z,9.20
2022-09-29T00:19:25.675Z,9.20
2022-09-29T00:22:13.355Z,9.20
2022-09-29T00:25:01.046Z,9.20
2022-09-29T00:27:52.330Z,9.20
2022-09-29T00:30:40.245Z,9.20
2022-09-29T00:33:36.565Z,9.20
2022-09-29T00:36:25.867Z,9.20
2022-09-29T00:39:14.156Z,9.20
2022-09-29T00:42:02.031Z,9.20
2022-09-29T00:45:05.265Z,9.20
2022-09-29T00:48:18.169Z,9.20
2022-09-29T00:51:06.475Z,9.20
2022-09-29T00:53:55.515Z,9.20
2022-09-29T00:56:45.271Z,9.20
2022-09-29T00:59:59.275Z,9.20
2022-09-29T01:02:58.076Z,9.20
2022-09-29T01:05:55.365Z,9.20
2022-09-29T01:09:15.757Z,9.10
2022-09-29T01:12:03.956Z,9.10
2022-09-29T01:14:56.457Z,9.10
2022-09-29T01:17:44.975Z,9.00
2022-09-29T01:20:41.986Z,9.00
2022-09-29T01:24:07.920Z,8.90
2022-09-29T01:27:44.981Z,8.90
2022-09-29T01:31:00.567Z,8.80
2022-09-29T01:34:19.237Z,8.80
2022-09-29T01:37:41.686Z,8.70
2022-09-29T01:40:55.075Z,8.70
2022-09-29T01:44:21.463Z,8.70
2022-09-29T01:47:23.120Z,8.60
2022-09-29T01:50:42.471Z,8.60
2022-09-29T01:53:50.328Z,8.70
2022-09-29T01:56:52.052Z,8.70
2022-09-29T01:59:51.495Z,8.70
2022-09-29T02:03:12.886Z,8.70
2022-09-29T02:06:21.995Z,8.70
2022-09-29T02:09:19.055Z,8.70
2022-09-29T02:12:10.689Z,8.70
2022-09-29T02:15:03.322Z,8.70
2022-09-29T02:17:53.290Z,8.70
2022-09-29T02:20:44.080Z,8.70
2022-09-29T02:23:32.401Z,8.70
2022-09-29T02:26:21.371Z,8.60
2022-09-29T02:29:13.675Z,8.60
2022-09-29T02:32:03.215Z,8.70
2022-09-29T02:34:53.106Z,8.70
2022-09-29T02:38:15.915Z,8.70
2022-09-29T02:42:11.526Z,8.80
2022-09-29T02:45:49.844Z,8.80
2022-09-29T02:48:43.755Z,8.80
2022-09-29T02:51:44.561Z,8.80
2022-09-29T02:55:00.670Z,8.80
2022-09-29T02:58:18.160Z,8.80
2022-09-29T03:01:07.866Z,8.80
2022-09-29T03:04:04.137Z,8.80
2022-09-29T03:06:53.672Z,8.80
2022-09-29T03:09:41.149Z,8.80
2022-09-29T03:12:28.715Z,8.80
2022-09-29T03:15:16.723Z,8.80
2022-09-29T03:18:09.325Z,8.80
2022-09-29T03:20:58.205Z,8.70
2022-09-29T03:23:46.155Z,8.70
2022-09-29T03:26:33.813Z,8.70
2022-09-29T03:29:21.542Z,8.70
2022-09-29T03:32:09.606Z,8.70
2022-09-29T03:34:57.195Z,8.70
2022-09-29T03:37:44.879Z,8.70
2022-09-29T03:40:32.965Z,8.70
2022-09-29T03:43:21.025Z,8.70
2022-09-29T03:46:08.670Z,8.70
2022-09-29T03:48:56.481Z,8.70
2022-09-29T03:51:45.039Z,8.70
2022-09-29T03:54:35.243Z,8.80
2022-09-29T03:57:22.723Z,8.80
2022-09-29T04:00:11.686Z,8.80
2022-09-29T04:03:00.097Z,8.80
2022-09-29T04:05:49.242Z,8.80
2022-09-29T04:08:38.470Z,8.70
2022-09-29T04:11:26.120Z,8.70
2022-09-29T04:14:13.804Z,8.60
2022-09-29T04:17:01.360Z,8.60
2022-09-29T04:19:49.360Z,8.60
2022-09-29T04:22:37.275Z,8.60
2022-09-29T04:25:25.132Z,8.60
2022-09-29T04:28:14.015Z,8.60
2022-09-29T04:31:02.245Z,8.60
2022-09-29T04:33:49.865Z,8.60
2022-09-29T04:36:37.595Z,8.60
2022-09-29T04:39:25.405Z,8.50
2022-09-29T04:42:13.032Z,8.50
2022-09-29T04:45:01.666Z,8.50
2022-09-29T04:47:49.460Z,8.40
2022-09-29T04:50:37.635Z,8.40
2022-09-29T04:53:25.239Z,8.30
2022-09-29T04:56:13.240Z,8.30
2022-09-29T04:59:01.989Z,8.20
2022-09-29T05:01:50.276Z,8.20
2022-09-29T05:04:40.880Z,8.30
2022-09-29T05:07:29.050Z,8.20
2022-09-29T05:10:16.900Z,8.30
2022-09-29T05:13:04.394Z,8.30
2022-09-29T05:15:57.906Z,8.30
2022-09-29T05:18:45.678Z,8.30
2022-09-29T05:21:33.360Z,8.30
2022-09-29T05:24:21.039Z,8.30
2022-09-29T05:27:08.855Z,8.20
2022-09-29T05:29:57.235Z,8.20
2022-09-29T05:32:46.315Z,8.20
2022-09-29T05:35:33.994Z,8.20
2022-09-29T05:38:23.286Z,8.20
2022-09-29T05:41:13.526Z,8.20
2022-09-29T05:44:01.834Z,8.20
2022-09-29T05:46:49.380Z,8.20
2022-09-29T05:49:39.756Z,8.20
2022-09-29T05:52:27.436Z,8.30
2022-09-29T05:55:16.085Z,8.30
2022-09-29T05:58:04.845Z,8.30
2022-09-29T06:00:52.773Z,8.30
2022-09-29T06:03:41.711Z,8.30
2022-09-29T06:06:30.135Z,8.30
2022-09-29T06:09:18.645Z,8.30
2022-09-29T06:12:06.646Z,8.30
2022-09-29T06:14:54.450Z,8.40
2022-09-29T06:17:42.056Z,8.40
2022-09-29T06:20:29.611Z,8.40
2022-09-29T06:23:17.266Z,8.50
2022-09-29T06:26:11.769Z,8.50
2022-09-29T06:28:59.763Z,8.60
2022-09-29T06:31:47.375Z,8.60
2022-09-29T06:34:35.041Z,8.60
2022-09-29T06:37:35.287Z,8.70
2022-09-29T06:40:25.432Z,8.70
2022-09-29T06:43:13.519Z,8.80
2022-09-29T06:46:01.602Z,9.20
2022-09-29T06:48:49.240Z,9.60
2022-09-29T06:51:44.910Z,9.80
2022-09-29T06:54:33.915Z,9.90
2022-09-29T06:57:21.896Z,9.90
2022-09-29T07:00:10.321Z,9.90
2022-09-29T07:02:57.954Z,9.90
2022-09-29T07:05:52.727Z,10.00
2022-09-29T07:08:55.535Z,10.00
2022-09-29T07:11:50.978Z,10.10
2022-09-29T07:14:38.796Z,10.10
2022-09-29T07:17:26.640Z,10.30
2022-09-29T07:20:14.645Z,10.60
2022-09-29T07:23:02.333Z,10.90
2022-09-29T07:25:52.448Z,11.10
2022-09-29T07:28:41.200Z,11.20
2022-09-29T07:31:31.577Z,11.30
2022-09-29T07:34:23.406Z,11.40
2022-09-29T07:37:14.085Z,11.50
2022-09-29T07:40:02.155Z,11.50
2022-09-29T07:42:50.295Z,11.50
2022-09-29T07:45:38.584Z,11.40
2022-09-29T07:48:31.669Z,11.30
2022-09-29T07:51:20.877Z,11.10
2022-09-29T07:54:08.387Z,11.00
2022-09-29T07:56:56.064Z,11.20
2022-09-29T07:59:49.616Z,11.50
2022-09-29T08:02:40.395Z,11.90
2022-09-29T08:05:29.195Z,12.10
2022-09-29T08:08:17.205Z,12.10
2022-09-29T08:11:11.408Z,12.00
2022-09-29T08:14:02.411Z,12.20
2022-09-29T08:16:50.056Z,12.40
2022-09-29T08:19:37.851Z,12.60
2022-09-29T08:22:25.890Z,12.70
2022-09-29T08:25:13.462Z,12.90
2022-09-29T08:28:01.481Z,12.90
2022-09-29T08:30:49.510Z,13.10
2022-09-29T08:33:39.006Z,13.40
2022-09-29T08:36:27.122Z,13.50
2022-09-29T08:39:15.738Z,13.40
2022-09-29T08:42:16.055Z,13.20
2022-09-29T08:45:16.654Z,13.10
2022-09-29T08:48:23.733Z,13.40
2022-09-29T08:51:42.758Z,13.30
2022-09-29T08:54:42.912Z,13.40
2022-09-29T08:57:32.720Z,13.40
2022-09-29T09:00:27.132Z,13.50
2022-09-29T09:03:17.675Z,13.70
2022-09-29T09:06:18.926Z,13.70
2022-09-29T09:10:00.167Z,13.80
2022-09-29T09:13:20.246Z,13.60
2022-09-29T09:16:44.219Z,13.70
2022-09-29T09:19:51.120Z,13.50
2022-09-29T09:22:58.965Z,13.30
2022-09-29T09:26:03.285Z,13.20
2022-09-29T09:29:11.445Z,13.20
2022-09-29T09:32:12.401Z,13.40
2022-09-29T09:35:27.599Z,13.80
2022-09-29T09:38:40.886Z,13.90
2022-09-29T09:41:36.488Z,13.90
2022-09-29T09:44:34.170Z,14.10
2022-09-29T09:47:37.851Z,14.10
2022-09-29T09:50:26.714Z,14.10
2022-09-29T09:53:33.689Z,14.30
2022-09-29T09:57:01.443Z,14.40
2022-09-29T10:00:16.243Z,14.50
2022-09-29T10:03:12.320Z,14.10
2022-09-29T10:06:00.906Z,13.80
2022-09-29T10:08:50.020Z,14.10
2022-09-29T10:11:37.851Z,14.40
2022-09-29T10:14:28.822Z,14.60
2022-09-29T10:17:20.566Z,14.80
2022-09-29T10:20:09.885Z,14.80
2022-09-29T10:23:35.279Z,14.90
2022-09-29T10:26:29.030Z,15.00
2022-09-29T10:29:22.043Z,15.20
2022-09-29T10:32:36.734Z,15.40
2022-09-29T10:35:41.435Z,15.60
2022-09-29T10:38:28.997Z,15.70
2022-09-29T10:41:20.105Z,15.80
2022-09-29T10:44:22.333Z,15.80
2022-09-29T10:47:16.300Z,15.90
2022-09-29T10:50:16.022Z,16.00
2022-09-29T10:53:43.653Z,16.00
2022-09-29T10:56:31.611Z,16.10
2022-09-29T10:59:19.931Z,16.10
2022-09-29T11:02:26.812Z,16.20
2022-09-29T11:05:21.931Z,16.20
2022-09-29T11:08:13.636Z,16.40
2022-09-29T11:11:17.688Z,16.30
2022-09-29T11:14:05.665Z,16.30
2022-09-29T11:16:57.879Z,16.40
2022-09-29T11:19:45.853Z,16.50
2022-09-29T11:23:13.199Z,16.40
2022-09-29T11:26:49.726Z,16.50
2022-09-29T11:29:52.560Z,16.20
2022-09-29T11:32:52.177Z,15.70
2022-09-29T11:36:24.071Z,15.60
2022-09-29T11:39:40.096Z,15.70
2022-09-29T11:42:49.500Z,15.90
2022-09-29T11:46:12.584Z,16.10
2022-09-29T11:49:28.066Z,16.30
2022-09-29T11:53:21.834Z,16.30
2022-09-29T11:56:17.600Z,16.30
2022-09-29T11:59:35.915Z,16.40
2022-09-29T12:02:46.079Z,16.50
2022-09-29T12:06:21.361Z,16.50
2022-09-29T12:09:33.757Z,16.60
2022-09-29T12:13:02.395Z,16.60
2022-09-29T12:16:17.814Z,16.50
2022-09-29T12:19:13.882Z,16.60
2022-09-29T12:22:07.913Z,16.70
2022-09-29T12:24:59.600Z,16.70
2022-09-29T12:27:51.595Z,16.50
2022-09-29T12:30:57.594Z,16.70
2022-09-29T12:34:03.244Z,16.80
2022-09-29T12:37:07.840Z,16.70
2022-09-29T12:40:14.207Z,16.80
2022-09-29T12:43:08.795Z,16.90
2022-09-29T12:46:43.250Z,17.00
2022-09-29T12:50:02.012Z,17.00
2022-09-29T12:53:16.440Z,17.00
2022-09-29T12:56:21.223Z,16.90
2022-09-29T12:59:40.496Z,16.90
2022-09-29T13:03:02.520Z,17.00
2022-09-29T13:06:34.395Z,16.90
2022-09-29T13:09:46.772Z,16.90
2022-09-29T13:12:59.736Z,16.90
2022-09-29T13:16:17.758Z,16.80
2022-09-29T13:19:56.194Z,16.70
2022-09-29T13:23:05.752Z,16.50
2022-09-29T13:26:01.910Z,16.50
2022-09-29T13:29:09.536Z,16.40
2022-09-29T13:31:59.246Z,16.40
2022-09-29T13:34:55.641Z,16.40
2022-09-29T13:38:07.270Z,16.40
2022-09-29T13:41:22.384Z,16.50
2022-09-29T13:44:27.526Z,16.40
2022-09-29T13:47:35.215Z,16.40
2022-09-29T13:50:41.966Z,16.40
2022-09-29T13:53:37.751Z,16.40
2022-09-29T13:56:25.280Z,16.40
2022-09-29T13:59:21.515Z,16.20
2022-09-29T14:02:40.297Z,16.10
2022-09-29T14:05:27.679Z,16.00
2022-09-29T14:08:53.690Z,15.80
2022-09-29T14:11:51.470Z,15.90
2022-09-29T14:14:44.926Z,15.80
2022-09-29T14:17:42.958Z,15.70
2022-09-29T14:20:35.214Z,15.60
2022-09-29T14:23:49.409Z,15.60
2022-09-29T14:26:46.915Z,15.50
2022-09-29T14:29:50.159Z,15.40
2022-09-29T14:32:56.940Z,15.30
2022-09-29T14:36:00.937Z,15.30
2022-09-29T14:39:32.402Z,15.30
2022-09-29T14:42:05.938Z,15.20
2022-09-29T14:45:12.740Z,15.00
2022-09-29T14:48:35.813Z,15.10
2022-09-29T14:51:54.726Z,15.10
2022-09-29T14:55:22.216Z,15.00
2022-09-29T14:58:10.136Z,14.90
2022-09-29T15:01:10.735Z,14.90
2022-09-29T15:04:20.297Z,15.00
2022-09-29T15:07:16.671Z,15.00
2022-09-29T15:10:29.086Z,15.00
2022-09-29T15:13:30.336Z,15.00
2022-09-29T15:16:47.402Z,14.90
2022-09-29T15:19:56.203Z,14.90
2022-09-29T15:23:16.086Z,14.80
2022-09-29T15:26:03.815Z,14.80
2022-09-29T15:28:51.418Z,14.80
2022-09-29T15:31:38.961Z,14.90
2022-09-29T15:34:26.671Z,14.90
2022-09-29T15:37:17.887Z,14.80
2022-09-29T15:40:06.066Z,14.80
2022-09-29T15:42:55.688Z,14.70
2022-09-29T15:46:02.673Z,14.70
2022-09-29T15:49:22.964Z,14.70
2022-09-29T15:52:19.630Z,14.60
2022-09-29T15:55:14.425Z,14.50
2022-09-29T15:58:03.720Z,14.40
2022-09-29T16:00:58.130Z,14.30
2022-09-29T16:03:57.755Z,14.20
2022-09-29T16:06:46.310Z,14.10
2022-09-29T16:09:37.741Z,14.00
2022-09-29T16:12:26.249Z,14.00
2022-09-29T16:15:33.799Z,13.90
2022-09-29T16:18:32.385Z,13.90
2022-09-29T16:21:24.025Z,13.80
2022-09-29T16:24:19.215Z,13.90
2022-09-29T16:27:57.465Z,13.80
2022-09-29T16:31:04.678Z,13.80
2022-09-29T16:33:57.555Z,13.80
2022-09-29T16:36:55.650Z,13.80
2022-09-29T16:39:46.818Z,13.70
2022-09-29T16:42:34.982Z,13.70
2022-09-29T16:45:24.909Z,13.60
2022-09-29T16:48:13.115Z,13.50
2022-09-29T16:51:12.364Z,13.50
2022-09-29T16:54:27.314Z,13.40
2022-09-29T16:57:30.354Z,13.30
2022-09-29T17:00:18.875Z,13.30
2022-09-29T17:03:06.711Z,13.20
2022-09-29T17:05:54.727Z,13.20
2022-09-29T17:08:42.916Z,13.10
2022-09-29T17:11:30.505Z,13.10
2022-09-29T17:14:21.865Z,13.00
2022-09-29T17:17:23.070Z,13.00
2022-09-29T17:20:22.181Z,13.00
2022-09-29T17:23:10.839Z,13.00
2022-09-29T17:26:18.345Z,12.90
2022-09-29T17:29:05.900Z,12.90
2022-09-29T17:31:53.545Z,12.80
2022-09-29T17:34:40.996Z,12.70
2022-09-29T17:37:28.581Z,12.70
2022-09-29T17:40:26.867Z,12.60
2022-09-29T17:43:14.355Z,12.60
2022-09-29T17:46:03.100Z,12.60
2022-09-29T17:48:50.761Z,12.60
2022-09-29T17:51:38.436Z,12.60
2022-09-29T17:54:27.301Z,12.60
2022-09-29T17:57:27.507Z,12.60
2022-09-29T18:00:23.720Z,12.60
2022-09-29T18:03:13.487Z,12.60
2022-09-29T18:06:01.304Z,12.50
2022-09-29T18:08:53.689Z,12.50
2022-09-29T18:11:41.830Z,12.40
2022-09-29T18:14:30.935Z,12.40
2022-09-29T18:17:18.470Z,12.40
2022-09-29T18:20:21.962Z,12.40
2022-09-29T18:23:09.600Z,12.40
2022-09-29T18:25:57.122Z,12.40
2022-09-29T18:28:48.425Z,12.40
2022-09-29T18:31:36.037Z,12.30
2022-09-29T18:34:23.606Z,12.30
2022-09-29T18:37:11.148Z,12.30
2022-09-29T18:39:59.207Z,12.20
2022-09-29T18:42:56.136Z,12.20
2022-09-29T18:45:45.075Z,12.20
2022-09-29T18:48:32.636Z,12.20
2022-09-29T18:51:21.319Z,12.20
2022-09-29T18:54:09.551Z,12.30
2022-09-29T18:56:57.151Z,12.40
2022-09-29T18:59:44.670Z,12.40
2022-09-29T19:02:32.248Z,12.40
2022-09-29T19:05:29.178Z,12.40
2022-09-29T19:08:18.775Z,12.50
2022-09-29T19:11:06.397Z,12.50
2022-09-29T19:13:56.238Z,12.50
2022-09-29T19:16:44.539Z,12.50
2022-09-29T19:19:32.035Z,12.60
2022-09-29T19:22:19.690Z,12.60
2022-09-29T19:25:07.926Z,12.70
2022-09-29T19:27:59.126Z,12.80
2022-09-29T19:30:47.950Z,12.80
2022-09-29T19:33:35.900Z,12.90
2022-09-29T19:36:23.553Z,12.80
2022-09-29T19:39:13.334Z,12.80
2022-09-29T19:42:00.927Z,12.80
2022-09-29T19:44:48.861Z,12.70
2022-09-29T19:47:37.632Z,12.70
2022-09-29T19:50:44.060Z,12.70
2022-09-29T19:53:34.240Z,12.80
2022-09-29T19:56:21.685Z,12.80
2022-09-29T19:59:14.375Z,12.80
2022-09-29T20:02:06.004Z,12.80
2022-09-29T20:04:53.665Z,12.80
2022-09-29T20:07:46.575Z,12.80
2022-09-29T20:10:34.418Z,12.70
2022-09-29T20:13:22.451Z,12.70
2022-09-29T20:16:10.406Z,12.70
2022-09-29T20:18:58.035Z,12.70
2022-09-29T20:21:50.588Z,12.60
2022-09-29T20:24:38.133Z,12.60
2022-09-29T20:27:26.511Z,12.50
2022-09-29T20:30:14.057Z,12.50
2022-09-29T20:33:01.561Z,12.50
2022-09-29T20:35:49.030Z,12.40
2022-09-29T20:38:43.536Z,12.30
2022-09-29T20:41:31.453Z,12.20
2022-09-29T20:44:20.097Z,12.20
2022-09-29T20:47:07.882Z,12.10
2022-09-29T20:49:56.596Z,12.00
2022-09-29T20:52:44.405Z,12.00
2022-09-29T20:55:32.085Z,11.90
2022-09-29T20:58:19.670Z,11.80
2022-09-29T21:01:23.150Z,11.80
2022-09-29T21:04:14.080Z,11.80
2022-09-29T21:07:01.591Z,11.70
2022-09-29T21:09:49.099Z,11.70
2022-09-29T21:12:37.865Z,11.70
2022-09-29T21:15:25.350Z,11.60
2022-09-29T21:18:13.209Z,11.60
2022-09-29T21:21:10.898Z,11.50
2022-09-29T21:23:58.400Z,11.50
2022-09-29T21:26:45.920Z,11.40
2022-09-29T21:29:33.555Z,11.40
2022-09-29T21:32:21.003Z,11.40
2022-09-29T21:35:09.009Z,11.30
2022-09-29T21:37:56.480Z,11.30
2022-09-29T21:40:43.989Z,11.30
2022-09-29T21:43:34.435Z,11.30
2022-09-29T21:46:26.873Z,11.30
2022-09-29T21:49:16.793Z,11.20
2022-09-29T21:52:04.390Z,11.20
2022-09-29T21:54:51.891Z,11.20
2022-09-29T21:57:39.520Z,11.20
2022-09-29T22:00:27.051Z,11.20
2022-09-29T22:03:15.791Z,11.20
2022-09-29T22:06:05.570Z,11.20
2022-09-29T22:08:54.251Z,11.20
2022-09-29T22:11:42.523Z,11.20
2022-09-29T22:14:31.135Z,11.10
2022-09-29T22:17:18.690Z,11.10
2022-09-29T22:20:06.730Z,11.10
2022-09-29T22:22:54.196Z,11.10
2022-09-29T22:25:46.660Z,11.10
2022-09-29T22:28:34.212Z,11.00
2022-09-29T22:31:22.018Z,11.00
2022-09-29T22:34:11.395Z,11.00
2022-09-29T22:36:58.956Z,11.00
2022-09-29T22:39:46.681Z,11.00
2022-09-29T22:42:34.190Z,11.00
2022-09-29T22:45:22.561Z,11.00
2022-09-29T22:48:10.061Z,11.00
2022-09-29T22:50:57.625Z,11.00
2022-09-29T22:53:45.215Z,11.00
2022-09-29T22:56:32.711Z,11.00
2022-09-29T22:59:20.286Z,11.00
2022-09-29T23:02:07.783Z,11.00
2022-09-29T23:04:55.380Z,11.00
2022-09-29T23:07:43.910Z,11.00
2022-09-29T23:10:31.875Z,11.00
2022-09-29T23:13:21.680Z,11.00
2022-09-29T23:16:14.148Z,10.90
2022-09-29T23:19:01.753Z,10.90
2022-09-29T23:21:49.240Z,10.90
2022-09-29T23:24:36.711Z,10.90
2022-09-29T23:27:24.361Z,10.90
2022-09-29T23:30:12.034Z,11.00
2022-09-29T23:32:59.513Z,11.00
2022-09-29T23:35:47.201Z,11.00
2022-09-29T23:38:53.632Z,11.00
2022-09-29T23:41:51.888Z,11.00
2022-09-29T23:44:41.050Z,11.00
2022-09-29T23:47:28.626Z,10.90
2022-09-29T23:50:17.370Z,10.90
2022-09-29T23:53:06.100Z,10.90
2022-09-29T23:55:53.600Z,10.90
2022-09-29T23:58:41.751Z,10.90
